Time;durP1;ratioP1;P1;durP2;ratioP2;P2;SDS_P1;SDS_P2;PMS_P1;PMS_P2;Temp;Humidity;BMP_temperature;BMP_pressure;BME280_temperature;BME280_humidity;BME280_pressure;Samples;Min_cycle;Max_cycle;Signal;HPM_P1;HPM_P2
2022/03/03 00:01:55;;;;;;;34.75;28.65;;;-1.60;99.90;;;;;;5020462;28;20119;-75
2022/03/03 00:04:22;;;;;;;43.63;30.45;;;-1.50;99.90;;;;;;5028624;28;20485;-75
2022/03/03 00:06:50;;;;;;;40.63;31.23;;;-1.40;99.90;;;;;;5039025;28;20040;-75
2022/03/03 00:09:16;;;;;;;44.13;32.45;;;-1.40;99.90;;;;;;5051653;28;20103;-75
2022/03/03 00:11:43;;;;;;;45.75;33.30;;;-1.60;99.90;;;;;;5036995;28;20471;-75
2022/03/03 00:14:10;;;;;;;44.70;32.58;;;-1.70;99.90;;;;;;5036829;28;20135;-75
2022/03/03 00:16:37;;;;;;;40.42;31.55;;;-1.80;99.90;;;;;;5054080;28;20056;-75
2022/03/03 00:19:04;;;;;;;43.65;31.33;;;-1.90;99.90;;;;;;5037725;28;20198;-75
2022/03/03 00:21:31;;;;;;;41.03;30.17;;;-1.80;99.90;;;;;;5039914;28;20527;-75
2022/03/03 00:23:57;;;;;;;36.67;28.50;;;-1.80;99.90;;;;;;5040530;28;20068;-74
2022/03/03 00:26:24;;;;;;;42.50;30.25;;;-1.80;99.90;;;;;;5054929;28;20052;-75
2022/03/03 00:28:51;;;;;;;41.85;31.27;;;-1.80;99.90;;;;;;5039681;28;20048;-75
2022/03/03 00:31:18;;;;;;;46.25;32.53;;;-1.70;99.90;;;;;;5039504;28;20041;-74
2022/03/03 00:33:45;;;;;;;40.08;29.60;;;-1.70;99.90;;;;;;5038437;28;20200;-74
2022/03/03 00:36:12;;;;;;;39.15;28.05;;;-1.70;99.90;;;;;;5047912;28;20109;-74
2022/03/03 00:38:39;;;;;;;49.55;31.27;;;-1.70;99.90;;;;;;5040407;28;20056;-74
2022/03/03 00:41:06;;;;;;;37.83;28.20;;;-1.70;99.90;;;;;;5050284;28;20071;-74
2022/03/03 00:43:32;;;;;;;41.55;29.10;;;-1.70;99.90;;;;;;5020513;28;20080;-73
2022/03/03 00:46:00;;;;;;;38.15;28.67;;;-1.50;99.90;;;;;;5024469;28;20681;-74
2022/03/03 00:48:27;;;;;;;44.78;29.00;;;-1.30;99.90;;;;;;5030699;28;20435;-74
2022/03/03 00:50:53;;;;;;;36.03;28.25;;;-1.20;99.90;;;;;;5040558;28;20049;-74
2022/03/03 00:53:20;;;;;;;39.72;29.60;;;-1.20;99.90;;;;;;5019184;28;20262;-74
2022/03/03 00:55:47;;;;;;;35.38;27.08;;;-1.20;99.90;;;;;;5005065;28;20056;-73
2022/03/03 00:58:13;;;;;;;42.35;31.02;;;-1.10;99.90;;;;;;5038290;28;20580;-74
2022/03/03 01:00:40;;;;;;;38.53;28.55;;;-1.00;99.90;;;;;;5034628;23;20207;-74
2022/03/03 01:03:07;;;;;;;39.65;30.17;;;-0.90;99.90;;;;;;5002633;28;20064;-74
2022/03/03 01:05:34;;;;;;;34.38;28.27;;;-0.90;99.90;;;;;;4991956;28;20864;-74
2022/03/03 01:08:02;;;;;;;34.42;29.63;;;-0.80;99.90;;;;;;4991910;28;20610;-73
2022/03/03 01:10:29;;;;;;;37.25;30.77;;;-0.70;99.90;;;;;;4990261;28;20078;-73
2022/03/03 01:12:56;;;;;;;35.88;29.70;;;-0.80;99.90;;;;;;4989193;28;20045;-75
2022/03/03 01:15:23;;;;;;;37.88;29.30;;;-0.70;99.90;;;;;;4971592;28;20054;-73
2022/03/03 01:17:50;;;;;;;40.55;29.85;;;-0.70;99.90;;;;;;4953885;28;20567;-73
2022/03/03 01:20:16;;;;;;;40.38;30.20;;;-0.70;99.90;;;;;;4971839;28;20425;-73
2022/03/03 01:22:43;;;;;;;41.15;31.05;;;-0.90;99.90;;;;;;4972295;28;20100;-73
2022/03/03 01:25:10;;;;;;;37.53;30.55;;;-1.00;99.90;;;;;;4972623;28;20535;-74
2022/03/03 01:27:38;;;;;;;35.30;30.85;;;-1.00;99.90;;;;;;4980466;28;20046;-73
2022/03/03 01:30:06;;;;;;;39.20;30.27;;;-1.10;99.90;;;;;;4989629;28;20092;-74
2022/03/03 01:32:34;;;;;;;36.83;30.17;;;-1.10;99.90;;;;;;5001118;28;20042;-74
2022/03/03 01:35:00;;;;;;;42.40;31.02;;;-1.00;99.90;;;;;;4980809;28;20053;-73
2022/03/03 01:37:28;;;;;;;36.72;30.42;;;-1.00;99.90;;;;;;4985854;28;20547;-74
2022/03/03 01:39:55;;;;;;;37.22;31.52;;;-0.90;99.90;;;;;;4972122;28;20042;-73
2022/03/03 01:42:22;;;;;;;40.25;31.02;;;-1.10;99.90;;;;;;4973744;28;20159;-74
2022/03/03 01:44:49;;;;;;;37.67;32.35;;;-1.20;99.90;;;;;;4982710;28;20053;-76
2022/03/03 01:47:18;;;;;;;40.10;31.92;;;-1.30;99.90;;;;;;4987373;28;20069;-75
2022/03/03 01:49:47;;;;;;;39.65;30.70;;;-1.40;99.90;;;;;;5009961;28;20045;-76
2022/03/03 01:52:13;;;;;;;40.38;30.70;;;-1.50;99.90;;;;;;5007716;28;20042;-76
2022/03/03 01:54:41;;;;;;;39.03;31.58;;;-1.50;99.90;;;;;;4974603;28;20053;-75
2022/03/03 01:57:08;;;;;;;45.00;32.55;;;-1.50;99.90;;;;;;4975866;28;20068;-75
2022/03/03 01:59:36;;;;;;;38.50;30.25;;;-1.40;99.90;;;;;;4981862;28;20049;-76
2022/03/03 02:02:06;;;;;;;35.78;28.17;;;-1.50;99.90;;;;;;4994984;28;20077;-75
2022/03/03 02:04:34;;;;;;;38.83;29.08;;;-1.70;99.90;;;;;;4997237;28;20056;-76
2022/03/03 02:07:01;;;;;;;40.92;28.23;;;-1.60;99.90;;;;;;4978196;28;20046;-75
2022/03/03 02:09:28;;;;;;;40.05;29.65;;;-1.40;99.90;;;;;;4974287;28;20046;-77
2022/03/03 02:11:55;;;;;;;40.65;28.10;;;-1.30;99.90;;;;;;4973841;28;20046;-76
2022/03/03 02:14:22;;;;;;;41.55;29.27;;;-1.20;99.90;;;;;;4957431;28;20058;-77
2022/03/03 02:16:48;;;;;;;40.55;30.20;;;-1.30;99.90;;;;;;4970375;28;20462;-75
2022/03/03 02:19:17;;;;;;;32.40;28.95;;;-1.30;99.90;;;;;;4974940;28;20516;-74
2022/03/03 02:21:49;;;;;;;41.30;30.50;;;-1.30;99.90;;;;;;4972916;28;20046;-76
2022/03/03 02:24:17;;;;;;;38.92;30.13;;;-1.40;99.90;;;;;;4974826;28;20038;-77
2022/03/03 02:26:45;;;;;;;39.15;29.98;;;-1.50;99.90;;;;;;4975343;28;20050;-76
2022/03/03 02:29:12;;;;;;;43.40;31.33;;;-1.60;99.90;;;;;;4973254;28;20366;-76
2022/03/03 02:31:40;;;;;;;41.22;31.48;;;-1.70;99.90;;;;;;4972597;28;20057;-76
2022/03/03 02:34:07;;;;;;;44.85;31.85;;;-1.80;99.90;;;;;;4992648;28;20050;-73
2022/03/03 02:36:34;;;;;;;39.65;31.17;;;-1.90;99.90;;;;;;4974096;28;20292;-72
2022/03/03 02:39:04;;;;;;;40.10;31.85;;;-2.00;99.90;;;;;;4973190;28;20281;-72
2022/03/03 02:41:31;;;;;;;44.47;32.45;;;-2.10;99.90;;;;;;4969235;28;20058;-72
2022/03/03 02:43:59;;;;;;;44.38;33.60;;;-2.10;99.90;;;;;;4987142;28;20046;-72
2022/03/03 02:46:26;;;;;;;46.88;33.38;;;-2.10;99.90;;;;;;4959981;28;20060;-73
2022/03/03 02:48:53;;;;;;;40.53;30.98;;;-2.00;99.90;;;;;;4981232;28;20312;-74
2022/03/03 02:51:20;;;;;;;46.30;31.73;;;-1.80;99.90;;;;;;4999552;28;20104;-73
2022/03/03 02:53:47;;;;;;;44.13;30.27;;;-1.80;99.90;;;;;;4992534;28;20551;-73
2022/03/03 02:56:14;;;;;;;39.67;29.92;;;-1.90;99.90;;;;;;4980748;28;20597;-73
2022/03/03 02:58:41;;;;;;;40.97;30.70;;;-2.10;99.90;;;;;;4992158;28;20088;-74
2022/03/03 03:01:09;;;;;;;42.33;31.48;;;-2.00;99.90;;;;;;4985041;28;20041;-73
2022/03/03 03:03:37;;;;;;;40.13;31.63;;;-2.00;99.90;;;;;;4999464;28;20042;-73
2022/03/03 03:06:03;;;;;;;40.92;30.75;;;-1.90;99.90;;;;;;4985037;28;20267;-72
2022/03/03 03:08:30;;;;;;;43.55;31.55;;;-1.80;99.90;;;;;;4976255;28;20057;-72
2022/03/03 03:10:57;;;;;;;39.88;30.80;;;-1.80;99.90;;;;;;4999256;28;20038;-72
2022/03/03 03:13:24;;;;;;;40.58;30.67;;;-1.80;99.90;;;;;;4974287;28;20586;-73
2022/03/03 03:15:51;;;;;;;40.92;30.90;;;-1.80;99.90;;;;;;4973606;28;20050;-72
2022/03/03 03:18:22;;;;;;;39.15;31.10;;;-1.70;99.90;;;;;;4972610;28;20497;-73
2022/03/03 03:20:51;;;;;;;42.28;29.75;;;-1.60;99.90;;;;;;4955623;28;20050;-72
2022/03/03 03:23:20;;;;;;;39.20;30.20;;;-1.60;99.90;;;;;;4976460;28;20104;-74
2022/03/03 03:25:47;;;;;;;41.42;31.38;;;-1.60;99.90;;;;;;4998704;28;20299;-74
2022/03/03 03:28:15;;;;;;;39.22;31.27;;;-1.60;99.90;;;;;;5012268;28;20072;-73
2022/03/03 03:30:44;;;;;;;40.30;30.90;;;-1.50;99.90;;;;;;4987691;28;20580;-71
2022/03/03 03:33:11;;;;;;;42.28;31.95;;;-1.50;99.90;;;;;;4983234;28;20072;-72
2022/03/03 03:35:40;;;;;;;38.67;30.25;;;-1.50;99.90;;;;;;4966814;28;20046;-73
2022/03/03 03:38:07;;;;;;;38.30;31.23;;;-1.70;99.90;;;;;;4960278;28;20034;-73
2022/03/03 03:40:34;;;;;;;40.28;31.55;;;-1.80;99.90;;;;;;4956669;28;20057;-73
2022/03/03 03:43:00;;;;;;;38.85;31.02;;;-1.90;99.90;;;;;;4994099;28;20053;-72
2022/03/03 03:45:27;;;;;;;41.95;31.02;;;-1.80;99.90;;;;;;4978273;28;20060;-73
2022/03/03 03:47:54;;;;;;;40.75;31.17;;;-1.70;99.90;;;;;;4979650;28;20042;-72
2022/03/03 03:50:21;;;;;;;38.58;29.77;;;-1.90;99.90;;;;;;4970566;28;20061;-73
2022/03/03 03:52:48;;;;;;;41.92;32.17;;;-2.00;99.90;;;;;;4955870;28;20054;-73
2022/03/03 03:55:15;;;;;;;38.25;31.35;;;-1.90;99.90;;;;;;4984957;28;20643;-72
2022/03/03 03:57:41;;;;;;;38.97;31.60;;;-1.80;99.90;;;;;;4986491;28;20714;-73
2022/03/03 04:00:13;;;;;;;40.17;30.75;;;-1.80;99.90;;;;;;4976942;28;20123;-73
2022/03/03 04:02:44;;;;;;;38.75;30.77;;;-2.00;99.90;;;;;;4997477;28;20069;-74
2022/03/03 04:05:13;;;;;;;42.88;31.13;;;-2.10;99.90;;;;;;4978800;28;20061;-73
2022/03/03 04:07:41;;;;;;;40.83;32.25;;;-2.10;99.90;;;;;;4965321;28;20053;-73
2022/03/03 04:10:09;;;;;;;40.38;30.35;;;-2.10;99.90;;;;;;4955428;28;20065;-74
2022/03/03 04:12:36;;;;;;;39.90;31.42;;;-2.20;99.90;;;;;;4981147;28;20779;-73
2022/03/03 04:15:04;;;;;;;38.25;29.80;;;-2.30;99.90;;;;;;4955065;28;20050;-72
2022/03/03 04:17:32;;;;;;;41.53;32.25;;;-2.40;99.90;;;;;;4973449;28;20060;-74
2022/03/03 04:20:04;;;;;;;47.88;31.85;;;-2.50;99.90;;;;;;4973622;28;20049;-72
2022/03/03 04:22:32;;;;;;;39.58;30.30;;;-2.50;99.90;;;;;;4991518;28;20081;-73
2022/03/03 04:24:58;;;;;;;41.45;29.58;;;-2.60;99.90;;;;;;4991571;28;20034;-74
2022/03/03 04:27:26;;;;;;;39.50;30.33;;;-2.60;99.90;;;;;;4973522;28;20054;-73
2022/03/03 04:29:53;;;;;;;39.35;29.83;;;-2.50;99.90;;;;;;4960704;28;20054;-73
2022/03/03 04:32:20;;;;;;;42.45;30.20;;;-2.30;99.90;;;;;;4996717;28;20045;-73
2022/03/03 04:34:46;;;;;;;39.60;30.52;;;-2.20;99.90;;;;;;5006444;28;20053;-73
2022/03/03 04:37:13;;;;;;;48.45;33.78;;;-2.40;99.90;;;;;;4969943;28;20054;-73
2022/03/03 04:39:40;;;;;;;51.35;34.42;;;-2.60;99.90;;;;;;4972498;28;20641;-72
2022/03/03 04:42:07;;;;;;;45.42;31.23;;;-2.50;99.90;;;;;;4952009;28;20467;-73
2022/03/03 04:44:34;;;;;;;39.53;31.10;;;-2.60;99.90;;;;;;4952913;28;20050;-72
2022/03/03 04:47:01;;;;;;;40.42;31.42;;;-2.70;99.90;;;;;;4975018;28;20046;-73
2022/03/03 04:49:28;;;;;;;46.63;31.27;;;-2.70;99.90;;;;;;4955344;28;20042;-73
2022/03/03 04:51:55;;;;;;;43.85;31.45;;;-2.80;99.90;;;;;;4952585;28;20050;-73
2022/03/03 04:54:22;;;;;;;49.70;32.22;;;-2.70;99.90;;;;;;4981321;28;20447;-73
2022/03/03 04:56:48;;;;;;;40.38;29.20;;;-2.60;99.90;;;;;;4958519;28;20074;-72
2022/03/03 04:59:15;;;;;;;46.05;31.23;;;-2.60;99.90;;;;;;4954472;28;20142;-72
2022/03/03 05:01:42;;;;;;;47.55;32.67;;;-2.60;99.90;;;;;;4989425;28;20511;-73
2022/03/03 05:04:09;;;;;;;45.92;31.63;;;-2.60;99.90;;;;;;4989462;28;20077;-72
2022/03/03 05:06:36;;;;;;;48.28;31.80;;;-2.70;99.90;;;;;;4991920;28;20050;-72
2022/03/03 05:09:02;;;;;;;40.08;30.33;;;-2.70;99.90;;;;;;4970298;28;20060;-72
2022/03/03 05:11:29;;;;;;;44.10;31.65;;;-2.80;99.90;;;;;;4989342;28;20073;-73
2022/03/03 05:13:56;;;;;;;37.20;28.70;;;-2.80;99.90;;;;;;4990116;28;20049;-73
2022/03/03 05:16:23;;;;;;;48.53;32.33;;;-2.80;99.90;;;;;;4992181;28;20715;-71
2022/03/03 05:18:50;;;;;;;50.25;31.90;;;-2.70;99.90;;;;;;4988522;28;20042;-72
2022/03/03 05:21:17;;;;;;;45.25;31.85;;;-2.70;99.90;;;;;;4954271;28;20046;-74
2022/03/03 05:23:43;;;;;;;39.20;29.65;;;-2.80;99.90;;;;;;4970031;28;20805;-74
2022/03/03 05:26:10;;;;;;;43.47;30.98;;;-2.80;99.90;;;;;;4980824;28;20432;-74
2022/03/03 05:28:37;;;;;;;38.20;29.10;;;-2.80;99.90;;;;;;4971412;28;20150;-74
2022/03/03 05:31:04;;;;;;;39.85;29.48;;;-2.70;99.90;;;;;;4961091;28;20046;-73
2022/03/03 05:33:32;;;;;;;38.70;28.90;;;-2.60;99.90;;;;;;4996058;28;20350;-74
2022/03/03 05:36:04;;;;;;;46.00;29.45;;;-2.50;99.90;;;;;;4959003;28;20042;-72
2022/03/03 05:38:33;;;;;;;41.25;28.70;;;-2.60;99.90;;;;;;4971689;28;20058;-71
2022/03/03 05:41:01;;;;;;;39.55;27.98;;;-2.60;99.90;;;;;;4959694;28;20547;-74
2022/03/03 05:43:28;;;;;;;42.92;32.13;;;-2.40;99.90;;;;;;4990291;28;20054;-71
2022/03/03 05:45:56;;;;;;;40.72;29.15;;;-2.40;99.90;;;;;;4972185;28;20037;-72
2022/03/03 05:48:24;;;;;;;39.22;28.98;;;-2.30;99.90;;;;;;4990227;28;20740;-71
2022/03/03 05:50:50;;;;;;;38.63;29.35;;;-2.30;99.90;;;;;;4988115;28;20058;-71
2022/03/03 05:53:18;;;;;;;38.90;29.65;;;-2.40;99.90;;;;;;4986254;28;20459;-72
2022/03/03 05:55:50;;;;;;;35.95;28.20;;;-2.60;99.90;;;;;;4987936;28;20049;-71
2022/03/03 05:58:27;;;;;;;47.60;33.45;;;-2.60;99.90;;;;;;4990824;28;20507;-71
2022/03/03 06:00:57;;;;;;;40.15;30.88;;;-2.70;99.90;;;;;;4973556;28;20296;-71
2022/03/03 06:03:29;;;;;;;39.63;30.88;;;-2.80;99.90;;;;;;4980735;28;20693;-73
2022/03/03 06:06:08;;;;;;;45.83;33.47;;;-2.90;99.90;;;;;;4968243;28;20038;-73
2022/03/03 06:08:55;;;;;;;41.63;32.40;;;-3.00;99.90;;;;;;4967079;28;20076;-73
2022/03/03 06:11:26;;;;;;;47.75;32.65;;;-3.10;99.90;;;;;;4971470;28;20046;-73
2022/03/03 06:14:02;;;;;;;46.15;33.22;;;-2.90;99.90;;;;;;4953104;28;20132;-73
2022/03/03 06:16:30;;;;;;;44.00;32.35;;;-3.10;99.90;;;;;;4968066;28;20042;-73
2022/03/03 06:18:58;;;;;;;47.38;36.42;;;-3.20;99.90;;;;;;4954830;28;20636;-73
2022/03/03 06:21:26;;;;;;;46.50;36.47;;;-3.20;99.90;;;;;;4971891;28;20459;-73
2022/03/03 06:23:52;;;;;;;44.67;35.50;;;-3.30;99.90;;;;;;4956720;28;20109;-73
2022/03/03 06:26:20;;;;;;;45.58;35.38;;;-3.30;99.90;;;;;;4970558;28;20551;-73
2022/03/03 06:28:47;;;;;;;52.80;35.40;;;-3.40;99.90;;;;;;4988806;28;20185;-72
2022/03/03 06:31:14;;;;;;;47.30;35.38;;;-3.20;99.90;;;;;;4970389;28;20128;-73
2022/03/03 06:33:43;;;;;;;47.05;35.13;;;-3.00;99.90;;;;;;4996357;28;20145;-73
2022/03/03 06:36:09;;;;;;;39.00;33.38;;;-2.90;99.90;;;;;;4990303;28;20622;-71
2022/03/03 06:38:36;;;;;;;49.88;35.42;;;-3.10;99.90;;;;;;4985642;28;20426;-71
2022/03/03 06:41:05;;;;;;;46.28;34.80;;;-3.10;99.90;;;;;;4968853;28;20564;-71
2022/03/03 06:43:34;;;;;;;51.53;36.75;;;-3.10;99.90;;;;;;4972016;28;20071;-71
2022/03/03 06:46:01;;;;;;;51.15;36.20;;;-3.00;99.90;;;;;;4953513;28;20046;-71
2022/03/03 06:48:28;;;;;;;48.13;36.55;;;-3.00;99.90;;;;;;4983116;28;20053;-71
2022/03/03 06:50:56;;;;;;;54.70;37.28;;;-3.00;99.90;;;;;;4988552;28;20096;-71
2022/03/03 06:53:28;;;;;;;45.35;35.40;;;-3.00;99.90;;;;;;4954140;28;20056;-71
2022/03/03 06:56:05;;;;;;;52.60;36.85;;;-2.90;99.90;;;;;;4990663;28;20806;-71
2022/03/03 06:58:33;;;;;;;56.13;37.90;;;-2.70;99.90;;;;;;4988665;28;20140;-71
2022/03/03 07:01:07;;;;;;;52.08;36.35;;;-2.40;99.90;;;;;;5017681;23;20301;-72
2022/03/03 07:03:34;;;;;;;50.53;36.25;;;-2.20;99.90;;;;;;5020301;28;20077;-73
2022/03/03 07:06:03;;;;;;;43.70;36.20;;;-1.90;99.90;;;;;;5027678;28;20557;-73
2022/03/03 07:08:32;;;;;;;42.63;36.97;;;-1.50;99.90;;;;;;5041184;28;20057;-72
2022/03/03 07:10:59;;;;;;;49.40;38.50;;;-1.40;99.90;;;;;;5040568;28;20044;-75
2022/03/03 07:13:26;;;;;;;61.38;43.67;;;-1.10;99.90;;;;;;5059442;28;20110;-73
2022/03/03 07:16:23;;;;;;;70.35;49.65;;;-0.90;99.90;;;;;;5058053;28;20128;-75
2022/03/03 07:18:52;;;;;;;86.00;55.13;;;-0.80;99.90;;;;;;5043625;28;20509;-75
2022/03/03 07:21:31;;;;;;;45.47;38.97;;;-0.60;99.90;;;;;;5030061;28;20102;-75
2022/03/03 07:24:19;;;;;;;43.03;38.45;;;-0.50;99.90;;;;;;5038711;28;20049;-75
2022/03/03 07:26:47;;;;;;;43.63;39.13;;;-0.10;99.90;;;;;;5038638;28;20073;-75
2022/03/03 07:29:16;;;;;;;42.70;38.55;;;0.30;99.90;;;;;;5037717;28;20330;-74
2022/03/03 07:31:55;;;;;;;42.50;38.05;;;0.60;99.90;;;;;;5033313;28;20286;-75
2022/03/03 07:34:28;;;;;;;43.78;39.15;;;0.70;99.90;;;;;;5045081;28;20242;-74
2022/03/03 07:37:04;;;;;;;43.67;38.72;;;0.90;99.90;;;;;;5063447;28;20072;-74
2022/03/03 07:39:41;;;;;;;41.28;37.35;;;1.00;99.90;;;;;;5063830;28;20029;-73
2022/03/03 07:42:17;;;;;;;43.67;39.53;;;1.20;99.90;;;;;;5049192;28;20693;-75
2022/03/03 07:44:45;;;;;;;43.70;39.35;;;1.20;99.90;;;;;;5040739;28;20440;-75
2022/03/03 07:47:13;;;;;;;40.47;36.50;;;1.40;99.90;;;;;;5038163;28;20135;-74
2022/03/03 07:49:40;;;;;;;44.03;40.08;;;1.40;99.90;;;;;;5042868;28;20069;-75
2022/03/03 07:52:08;;;;;;;44.88;40.38;;;1.50;99.90;;;;;;5037178;28;20045;-75
2022/03/03 07:54:35;;;;;;;43.80;39.33;;;1.60;99.90;;;;;;5021219;28;20059;-75
2022/03/03 07:57:02;;;;;;;43.72;39.60;;;1.60;99.90;;;;;;5039038;28;20057;-75
2022/03/03 07:59:34;;;;;;;46.97;42.03;;;1.70;99.90;;;;;;5040381;28;20348;-75
2022/03/03 08:02:03;;;;;;;45.03;40.50;;;1.90;99.90;;;;;;5019236;28;20060;-74
2022/03/03 08:04:33;;;;;;;47.28;42.70;;;2.00;99.90;;;;;;5018134;28;20664;-75
2022/03/03 08:07:09;;;;;;;47.55;42.45;;;2.00;99.90;;;;;;5019599;28;20049;-75
2022/03/03 08:09:38;;;;;;;43.95;39.65;;;2.10;99.90;;;;;;5001357;28;20049;-74
2022/03/03 08:12:07;;;;;;;53.38;47.47;;;2.20;99.90;;;;;;5016650;28;20123;-74
2022/03/03 08:14:35;;;;;;;42.78;39.00;;;2.30;99.90;;;;;;5016854;28;21482;-75
2022/03/03 08:17:03;;;;;;;47.55;42.95;;;2.50;99.90;;;;;;5017372;28;20050;-75
2022/03/03 08:19:30;;;;;;;46.25;41.88;;;2.80;99.90;;;;;;5015361;28;20045;-75
2022/03/03 08:21:58;;;;;;;44.95;40.53;;;2.90;99.90;;;;;;5016387;28;20141;-75
2022/03/03 08:24:26;;;;;;;42.80;39.10;;;3.10;99.90;;;;;;5017292;28;20052;-75
2022/03/03 08:26:56;;;;;;;44.97;40.33;;;3.30;99.90;;;;;;5034925;28;20129;-75
2022/03/03 08:29:23;;;;;;;43.72;39.70;;;3.80;99.90;;;;;;5000146;28;20057;-73
2022/03/03 08:31:56;;;;;;;44.28;40.08;;;4.30;99.90;;;;;;5010860;28;20253;-72
2022/03/03 08:34:47;;;;;;;45.28;41.00;;;4.80;99.90;;;;;;5014746;28;20801;-73
2022/03/03 08:37:48;;;;;;;44.88;40.55;;;4.90;99.90;;;;;;5014317;28;20050;-73
2022/03/03 08:40:18;;;;;;;44.45;40.70;;;5.20;99.90;;;;;;4960320;28;20122;-73
2022/03/03 08:42:56;;;;;;;45.38;41.33;;;5.70;99.90;;;;;;5017087;28;20046;-72
2022/03/03 08:45:24;;;;;;;47.55;42.60;;;5.60;99.90;;;;;;5015823;28;20056;-72
2022/03/03 08:48:02;;;;;;;45.25;41.13;;;5.70;99.90;;;;;;5004868;28;20053;-73
2022/03/03 08:50:31;;;;;;;45.45;41.17;;;5.90;99.90;;;;;;5013063;28;20558;-73
2022/03/03 08:53:01;;;;;;;44.25;40.55;;;5.80;99.90;;;;;;5031968;28;20179;-72
2022/03/03 08:55:28;;;;;;;48.85;44.38;;;5.60;99.90;;;;;;5031431;28;20045;-73
2022/03/03 08:57:56;;;;;;;47.78;43.80;;;5.50;99.90;;;;;;5032015;28;20222;-73
2022/03/03 09:00:23;;;;;;;46.60;42.53;;;5.60;99.90;;;;;;5015073;28;20501;-73
2022/03/03 09:02:50;;;;;;;47.10;42.95;;;5.30;99.90;;;;;;5053711;28;20052;-75
2022/03/03 09:05:17;;;;;;;46.90;42.70;;;5.10;99.90;;;;;;5021686;28;20052;-72
2022/03/03 09:07:45;;;;;;;48.33;44.22;;;5.20;99.90;;;;;;5039930;28;20102;-74
2022/03/03 09:10:13;;;;;;;46.42;42.33;;;5.10;99.90;;;;;;5035510;28;20056;-75
2022/03/03 09:12:40;;;;;;;48.00;43.70;;;5.20;99.90;;;;;;5035770;28;20123;-75
2022/03/03 09:15:08;;;;;;;49.03;44.60;;;5.20;99.90;;;;;;5038901;28;20199;-73
2022/03/03 09:17:37;;;;;;;47.17;43.30;;;5.40;99.90;;;;;;5057910;28;20094;-72
2022/03/03 09:20:07;;;;;;;48.35;44.20;;;5.80;99.90;;;;;;5049357;28;20137;-74
2022/03/03 09:22:34;;;;;;;47.33;43.17;;;5.90;99.90;;;;;;5036913;28;20053;-72
2022/03/03 09:25:01;;;;;;;49.88;45.58;;;5.70;99.90;;;;;;5038959;28;20045;-72
2022/03/03 09:27:28;;;;;;;46.50;42.72;;;5.90;99.90;;;;;;5056557;28;20132;-73
2022/03/03 09:29:55;;;;;;;48.33;43.67;;;6.30;99.90;;;;;;5021994;28;20052;-73
2022/03/03 09:32:22;;;;;;;47.28;43.28;;;6.60;99.90;;;;;;5037633;28;20338;-73
2022/03/03 09:34:49;;;;;;;48.33;44.17;;;6.80;99.90;;;;;;5038656;28;20118;-73
2022/03/03 09:37:16;;;;;;;47.35;43.35;;;6.50;99.90;;;;;;5038804;28;20056;-72
2022/03/03 09:39:48;;;;;;;46.53;42.75;;;6.80;99.90;;;;;;5021615;28;20529;-72
2022/03/03 09:42:15;;;;;;;46.47;42.50;;;7.00;99.90;;;;;;5033160;28;20365;-73
2022/03/03 09:44:41;;;;;;;47.00;42.95;;;6.80;99.90;;;;;;5057446;28;20084;-73
2022/03/03 09:47:11;;;;;;;46.38;42.42;;;6.90;99.90;;;;;;5056796;28;20495;-72
2022/03/03 09:49:42;;;;;;;45.35;41.75;;;6.90;99.90;;;;;;5058824;28;20263;-72
2022/03/03 09:52:13;;;;;;;47.88;43.80;;;6.70;99.90;;;;;;5055338;28;20091;-72
2022/03/03 09:54:41;;;;;;;45.08;41.05;;;6.90;99.90;;;;;;5044888;28;20140;-72
2022/03/03 09:57:08;;;;;;;46.65;43.10;;;7.00;99.90;;;;;;5060629;28;20047;-72
2022/03/03 09:59:35;;;;;;;45.67;41.75;;;7.00;99.90;;;;;;5058309;28;20229;-71
2022/03/03 10:02:04;;;;;;;46.28;42.05;;;7.10;99.90;;;;;;5024394;28;20136;-72
2022/03/03 10:04:32;;;;;;;46.90;42.67;;;7.10;99.90;;;;;;5025892;28;20250;-72
2022/03/03 10:07:07;;;;;;;46.40;42.08;;;7.70;99.90;;;;;;5025638;28;20045;-73
2022/03/03 10:10:20;;;;;;;44.72;40.95;;;7.70;99.90;;;;;;5042032;28;20466;-72
2022/03/03 10:12:22;;;;;;;45.60;42.00;;;7.70;99.90;;;;;;5052827;28;20110;-73
2022/03/03 10:14:50;;;;;;;42.92;39.20;;;7.70;99.90;;;;;;5060866;28;20149;-73
2022/03/03 10:17:16;;;;;;;45.13;40.92;;;7.90;99.90;;;;;;5060140;28;20053;-73
2022/03/03 10:19:57;;;;;;;45.58;41.33;;;8.10;99.90;;;;;;5025540;28;20123;-73
2022/03/03 10:22:41;;;;;;;44.45;40.17;;;8.50;99.90;;;;;;5031082;28;20040;-73
2022/03/03 10:25:13;;;;;;;43.30;39.17;;;8.60;99.90;;;;;;5052013;28;20056;-73
2022/03/03 10:27:41;;;;;;;47.08;42.60;;;8.60;99.90;;;;;;5060600;28;20170;-73
2022/03/03 10:30:09;;;;;;;57.15;46.08;;;8.10;99.90;;;;;;5040778;28;20060;-73
2022/03/03 10:32:38;;;;;;;58.13;45.83;;;8.00;99.90;;;;;;5041620;28;20056;-73
2022/03/03 10:35:17;;;;;;;50.63;45.00;;;7.70;99.90;;;;;;5058477;28;20194;-73
2022/03/03 10:37:46;;;;;;;47.88;42.42;;;7.80;99.90;;;;;;5041637;28;20036;-74
2022/03/03 10:40:17;;;;;;;51.67;44.20;;;7.80;99.90;;;;;;5039817;28;20110;-73
2022/03/03 10:42:50;;;;;;;46.50;41.90;;;7.70;99.90;;;;;;5041609;28;20044;-73
2022/03/03 10:45:19;;;;;;;45.35;40.92;;;7.90;99.90;;;;;;5040745;28;20390;-73
2022/03/03 10:48:07;;;;;;;44.88;40.83;;;8.10;99.90;;;;;;5036650;28;20071;-73
2022/03/03 10:50:48;;;;;;;43.28;39.20;;;7.90;99.90;;;;;;5039872;28;20109;-73
2022/03/03 10:53:20;;;;;;;47.03;42.80;;;8.10;99.90;;;;;;5058475;28;20059;-73
2022/03/03 10:56:07;;;;;;;57.67;51.78;;;7.80;99.90;;;;;;5044981;28;20277;-73
2022/03/03 10:58:51;;;;;;;57.60;51.63;;;7.90;99.90;;;;;;5040982;28;20640;-72
2022/03/03 11:01:26;;;;;;;47.38;43.78;;;8.20;99.90;;;;;;5057494;28;20330;-73
2022/03/03 11:03:54;;;;;;;56.20;50.30;;;8.30;99.90;;;;;;5027370;28;20226;-72
2022/03/03 11:06:30;;;;;;;51.78;47.15;;;8.20;99.90;;;;;;5040130;28;20078;-73
2022/03/03 11:08:59;;;;;;;51.92;47.67;;;8.10;99.90;;;;;;5059439;28;20483;-72
2022/03/03 11:11:26;;;;;;;54.92;49.45;;;8.10;99.90;;;;;;5040058;28;20075;-72
2022/03/03 11:13:54;;;;;;;53.38;48.08;;;8.40;99.90;;;;;;5041566;28;20210;-73
2022/03/03 11:16:23;;;;;;;49.40;45.30;;;8.30;99.90;;;;;;5039564;28;20516;-73
2022/03/03 11:18:50;;;;;;;51.05;46.65;;;8.60;99.90;;;;;;5041282;28;20238;-73
2022/03/03 11:21:17;;;;;;;51.83;47.35;;;8.10;99.90;;;;;;5059572;28;20070;-74
2022/03/03 11:24:03;;;;;;;48.97;44.85;;;8.00;99.90;;;;;;5049507;28;20049;-73
2022/03/03 11:26:41;;;;;;;48.00;44.03;;;8.00;99.90;;;;;;5047400;28;20491;-73
2022/03/03 11:29:13;;;;;;;49.90;45.72;;;8.00;99.90;;;;;;5060081;28;20052;-73
2022/03/03 11:31:58;;;;;;;58.70;52.53;;;7.50;99.90;;;;;;5040326;28;20044;-73
2022/03/03 11:34:32;;;;;;;48.10;44.05;;;7.70;99.90;;;;;;5040723;28;20079;-73
2022/03/03 11:37:03;;;;;;;47.22;43.55;;;7.80;99.90;;;;;;5024051;28;20051;-73
2022/03/03 11:40:02;;;;;;;56.65;49.90;;;7.80;99.90;;;;;;5042785;28;20048;-75
2022/03/03 11:42:34;;;;;;;50.35;46.45;;;8.00;99.90;;;;;;5043777;28;20110;-73
2022/03/03 11:45:07;;;;;;;50.30;45.85;;;7.80;99.90;;;;;;5040295;28;20337;-73
2022/03/03 11:47:37;;;;;;;48.42;44.60;;;7.80;99.90;;;;;;5039915;28;20040;-72
2022/03/03 11:50:04;;;;;;;51.17;46.60;;;7.70;99.90;;;;;;5057070;28;20116;-73
2022/03/03 11:52:32;;;;;;;53.45;48.25;;;8.00;99.90;;;;;;5040319;28;20153;-73
2022/03/03 11:55:30;;;;;;;52.15;46.63;;;8.30;99.90;;;;;;5038564;28;20387;-73
2022/03/03 11:58:00;;;;;;;68.25;52.78;;;8.30;99.90;;;;;;5040753;28;20052;-73
2022/03/03 12:00:28;;;;;;;48.53;44.58;;;8.30;99.90;;;;;;5038627;28;20470;-73
2022/03/03 12:03:05;;;;;;;53.08;47.28;;;8.60;99.90;;;;;;5039843;28;20543;-73
2022/03/03 12:05:37;;;;;;;64.10;52.20;;;8.60;99.90;;;;;;5023531;28;20097;-73
2022/03/03 12:08:27;;;;;;;49.55;45.25;;;8.80;99.90;;;;;;5057723;28;20056;-73
2022/03/03 12:10:59;;;;;;;53.70;48.33;;;8.80;99.90;;;;;;5023362;28;20044;-74
2022/03/03 12:13:29;;;;;;;51.25;45.97;;;9.10;99.90;;;;;;5023044;28;20052;-73
2022/03/03 12:16:27;;;;;;;48.92;44.78;;;9.00;99.90;;;;;;5039402;28;20044;-73
2022/03/03 12:18:54;;;;;;;55.20;49.25;;;8.80;99.90;;;;;;5057770;28;20276;-73
2022/03/03 12:21:31;;;;;;;53.40;47.75;;;8.90;99.90;;;;;;5032837;28;20474;-73
2022/03/03 12:24:14;;;;;;;46.90;42.80;;;9.00;99.90;;;;;;5039688;28;20079;-73
2022/03/03 12:26:56;;;;;;;47.10;43.33;;;8.80;99.90;;;;;;5038698;28;20555;-73
2022/03/03 12:29:34;;;;;;;51.00;46.20;;;8.70;99.90;;;;;;5058433;28;20543;-73
2022/03/03 12:32:29;;;;;;;47.35;43.75;;;8.90;99.90;;;;;;5054111;28;20056;-73
2022/03/03 12:35:14;;;;;;;48.60;44.40;;;8.70;99.90;;;;;;5039225;28;20049;-73
2022/03/03 12:37:44;;;;;;;48.17;44.42;;;8.70;99.90;;;;;;5056903;28;20353;-73
2022/03/03 12:40:19;;;;;;;47.85;44.15;;;8.70;99.90;;;;;;5036954;28;20049;-73
2022/03/03 12:42:47;;;;;;;50.20;45.75;;;8.70;99.90;;;;;;5023084;28;20041;-73
2022/03/03 12:45:19;;;;;;;47.92;43.88;;;8.80;99.90;;;;;;5027795;28;20036;-73